sensor_id;sensor_type;location;lat;lon;timestamp;temperature;humidity
34492;DHT22;20737;49.908;8.126;2023-04-30T00:02:26;11.60;99.90
34492;DHT22;20737;49.908;8.126;2023-04-30T00:05:01;11.60;99.90
34492;DHT22;20737;49.908;8.126;2023-04-30T00:07:27;11.60;99.90
34492;DHT22;20737;49.908;8.126;2023-04-30T00:09:55;11.60;99.90
34492;DHT22;20737;49.908;8.126;2023-04-30T00:12:22;11.60;99.90
34492;DHT22;20737;49.908;8.126;2023-04-30T00:14:49;11.60;99.90
34492;DHT22;20737;49.908;8.126;2023-04-30T00:17:16;11.60;99.90
34492;DHT22;20737;49.908;8.126;2023-04-30T00:19:42;11.60;99.90
34492;DHT22;20737;49.908;8.126;2023-04-30T00:22:11;11.60;99.90
34492;DHT22;20737;49.908;8.126;2023-04-30T00:24:37;11.60;99.90
34492;DHT22;20737;49.908;8.126;2023-04-30T00:27:04;11.50;99.90
34492;DHT22;20737;49.908;8.126;2023-04-30T00:29:31;11.50;99.90
34492;DHT22;20737;49.908;8.126;2023-04-30T00:31:57;11.50;99.90
34492;DHT22;20737;49.908;8.126;2023-04-30T00:34:24;11.50;99.90
34492;DHT22;20737;49.908;8.126;2023-04-30T00:36:51;11.50;99.90
34492;DHT22;20737;49.908;8.126;2023-04-30T00:39:19;11.50;99.90
34492;DHT22;20737;49.908;8.126;2023-04-30T00:41:45;11.50;99.90
34492;DHT22;20737;49.908;8.126;2023-04-30T00:44:12;11.50;99.90
34492;DHT22;20737;49.908;8.126;2023-04-30T00:46:39;11.50;99.90
34492;DHT22;20737;49.908;8.126;2023-04-30T00:49:06;11.50;99.90
34492;DHT22;20737;49.908;8.126;2023-04-30T00:51:34;11.50;99.90
34492;DHT22;20737;49.908;8.126;2023-04-30T00:54:07;11.50;99.90
34492;DHT22;20737;49.908;8.126;2023-04-30T00:56:37;11.50;99.90
34492;DHT22;20737;49.908;8.126;2023-04-30T00:59:05;11.50;99.90
34492;DHT22;20737;49.908;8.126;2023-04-30T01:01:32;11.40;99.90
34492;DHT22;20737;49.908;8.126;2023-04-30T01:03:59;11.40;99.90
34492;DHT22;20737;49.908;8.126;2023-04-30T01:06:26;11.40;99.90
34492;DHT22;20737;49.908;8.126;2023-04-30T01:08:53;11.40;99.90
34492;DHT22;20737;49.908;8.126;2023-04-30T01:11:27;11.40;99.90
34492;DHT22;20737;49.908;8.126;2023-04-30T01:14:06;11.40;99.90
34492;DHT22;20737;49.908;8.126;2023-04-30T01:16:39;11.30;99.90
34492;DHT22;20737;49.908;8.126;2023-04-30T01:19:09;11.30;99.90
34492;DHT22;20737;49.908;8.126;2023-04-30T01:21:39;11.30;99.90
34492;DHT22;20737;49.908;8.126;2023-04-30T01:24:38;11.30;99.90
34492;DHT22;20737;49.908;8.126;2023-04-30T01:27:22;11.40;99.90
34492;DHT22;20737;49.908;8.126;2023-04-30T01:29:51;11.40;99.90
34492;DHT22;20737;49.908;8.126;2023-04-30T01:32:23;11.40;99.90
34492;DHT22;20737;49.908;8.126;2023-04-30T01:34:49;11.40;99.90
34492;DHT22;20737;49.908;8.126;2023-04-30T01:37:23;11.30;99.90
34492;DHT22;20737;49.908;8.126;2023-04-30T01:40:02;11.30;99.90
34492;DHT22;20737;49.908;8.126;2023-04-30T01:42:41;11.20;99.90
34492;DHT22;20737;49.908;8.126;2023-04-30T01:45:37;11.30;99.90
34492;DHT22;20737;49.908;8.126;2023-04-30T01:48:15;11.30;99.90
34492;DHT22;20737;49.908;8.126;2023-04-30T01:50:48;11.30;99.90
34492;DHT22;20737;49.908;8.126;2023-04-30T01:53:20;11.20;99.90
34492;DHT22;20737;49.908;8.126;2023-04-30T01:55:51;11.30;99.90
34492;DHT22;20737;49.908;8.126;2023-04-30T01:58:22;11.20;99.90
34492;DHT22;20737;49.908;8.126;2023-04-30T02:00:50;11.30;99.90
34492;DHT22;20737;49.908;8.126;2023-04-30T02:03:18;11.20;99.90
34492;DHT22;20737;49.908;8.126;2023-04-30T02:05:45;11.30;99.90
34492;DHT22;20737;49.908;8.126;2023-04-30T02:08:14;11.20;99.90
34492;DHT22;20737;49.908;8.126;2023-04-30T02:10:41;11.20;99.90
34492;DHT22;20737;49.908;8.126;2023-04-30T02:13:08;11.10;99.90
34492;DHT22;20737;49.908;8.126;2023-04-30T02:15:34;11.10;99.90
34492;DHT22;20737;49.908;8.126;2023-04-30T02:18:03;11.10;99.90
34492;DHT22;20737;49.908;8.126;2023-04-30T02:20:29;11.10;99.90
34492;DHT22;20737;49.908;8.126;2023-04-30T02:22:56;11.10;99.90
34492;DHT22;20737;49.908;8.126;2023-04-30T02:25:23;11.10;99.90
34492;DHT22;20737;49.908;8.126;2023-04-30T02:27:50;11.10;99.90
34492;DHT22;20737;49.908;8.126;2023-04-30T02:30:17;11.10;99.90
34492;DHT22;20737;49.908;8.126;2023-04-30T02:32:45;11.00;99.90
34492;DHT22;20737;49.908;8.126;2023-04-30T02:35:13;11.10;99.90
34492;DHT22;20737;49.908;8.126;2023-04-30T02:37:40;11.00;99.90
34492;DHT22;20737;49.908;8.126;2023-04-30T02:40:08;11.00;99.90
34492;DHT22;20737;49.908;8.126;2023-04-30T02:42:35;11.00;99.90
34492;DHT22;20737;49.908;8.126;2023-04-30T02:45:01;11.10;99.90
34492;DHT22;20737;49.908;8.126;2023-04-30T02:47:28;11.10;99.90
34492;DHT22;20737;49.908;8.126;2023-04-30T02:49:57;11.10;99.90
34492;DHT22;20737;49.908;8.126;2023-04-30T02:52:25;11.10;99.90
34492;DHT22;20737;49.908;8.126;2023-04-30T02:54:52;11.10;99.90
34492;DHT22;20737;49.908;8.126;2023-04-30T02:57:18;11.10;99.90
34492;DHT22;20737;49.908;8.126;2023-04-30T02:59:48;11.20;99.90
34492;DHT22;20737;49.908;8.126;2023-04-30T03:02:15;11.20;99.90
34492;DHT22;20737;49.908;8.126;2023-04-30T03:04:45;11.20;99.90
34492;DHT22;20737;49.908;8.126;2023-04-30T03:07:12;11.20;99.90
34492;DHT22;20737;49.908;8.126;2023-04-30T03:09:40;11.20;99.90
34492;DHT22;20737;49.908;8.126;2023-04-30T03:12:07;11.20;99.90
34492;DHT22;20737;49.908;8.126;2023-04-30T03:14:33;11.20;99.90
34492;DHT22;20737;49.908;8.126;2023-04-30T03:17:00;11.20;99.90
34492;DHT22;20737;49.908;8.126;2023-04-30T03:19:27;11.20;99.90
34492;DHT22;20737;49.908;8.126;2023-04-30T03:21:54;11.10;99.90
34492;DHT22;20737;49.908;8.126;2023-04-30T03:24:21;11.20;99.90
34492;DHT22;20737;49.908;8.126;2023-04-30T03:26:50;11.10;99.90
34492;DHT22;20737;49.908;8.126;2023-04-30T03:29:17;11.10;99.90
34492;DHT22;20737;49.908;8.126;2023-04-30T03:31:44;11.20;99.90
34492;DHT22;20737;49.908;8.126;2023-04-30T03:34:11;11.10;99.90
34492;DHT22;20737;49.908;8.126;2023-04-30T03:36:37;11.10;99.90
34492;DHT22;20737;49.908;8.126;2023-04-30T03:39:04;11.10;99.90
34492;DHT22;20737;49.908;8.126;2023-04-30T03:41:32;11.10;99.90
34492;DHT22;20737;49.908;8.126;2023-04-30T03:44:00;11.10;99.90
34492;DHT22;20737;49.908;8.126;2023-04-30T03:46:27;11.10;99.90
34492;DHT22;20737;49.908;8.126;2023-04-30T03:48:54;11.10;99.90
34492;DHT22;20737;49.908;8.126;2023-04-30T03:51:21;11.00;99.90
34492;DHT22;20737;49.908;8.126;2023-04-30T03:53:48;11.00;99.90
34492;DHT22;20737;49.908;8.126;2023-04-30T03:56:14;11.00;99.90
34492;DHT22;20737;49.908;8.126;2023-04-30T03:58:41;11.00;99.90
34492;DHT22;20737;49.908;8.126;2023-04-30T04:01:12;11.00;99.90
34492;DHT22;20737;49.908;8.126;2023-04-30T04:03:39;11.00;99.90
34492;DHT22;20737;49.908;8.126;2023-04-30T04:06:07;11.00;99.90
34492;DHT22;20737;49.908;8.126;2023-04-30T04:08:34;11.00;99.90
34492;DHT22;20737;49.908;8.126;2023-04-30T04:11:01;11.00;99.90
34492;DHT22;20737;49.908;8.126;2023-04-30T04:13:28;11.00;99.90
34492;DHT22;20737;49.908;8.126;2023-04-30T04:15:55;11.00;99.90
34492;DHT22;20737;49.908;8.126;2023-04-30T04:18:23;11.00;99.90
34492;DHT22;20737;49.908;8.126;2023-04-30T04:20:50;11.00;99.90
34492;DHT22;20737;49.908;8.126;2023-04-30T04:23:16;11.00;99.90
34492;DHT22;20737;49.908;8.126;2023-04-30T04:25:43;11.00;99.90
34492;DHT22;20737;49.908;8.126;2023-04-30T04:28:11;11.10;99.90
34492;DHT22;20737;49.908;8.126;2023-04-30T04:30:37;11.10;99.90
34492;DHT22;20737;49.908;8.126;2023-04-30T04:33:05;11.10;99.90
34492;DHT22;20737;49.908;8.126;2023-04-30T04:35:33;11.10;99.90
34492;DHT22;20737;49.908;8.126;2023-04-30T04:38:00;11.10;99.90
34492;DHT22;20737;49.908;8.126;2023-04-30T04:40:27;11.20;99.90
34492;DHT22;20737;49.908;8.126;2023-04-30T04:42:54;11.20;99.90
34492;DHT22;20737;49.908;8.126;2023-04-30T04:45:21;11.20;99.90
34492;DHT22;20737;49.908;8.126;2023-04-30T04:47:48;11.20;99.90
34492;DHT22;20737;49.908;8.126;2023-04-30T04:50:15;11.20;99.90
34492;DHT22;20737;49.908;8.126;2023-04-30T04:52:45;11.30;99.90
34492;DHT22;20737;49.908;8.126;2023-04-30T04:55:12;11.30;99.90
34492;DHT22;20737;49.908;8.126;2023-04-30T04:57:39;11.30;99.90
34492;DHT22;20737;49.908;8.126;2023-04-30T05:00:07;11.30;99.90
34492;DHT22;20737;49.908;8.126;2023-04-30T05:02:35;11.40;99.90
34492;DHT22;20737;49.908;8.126;2023-04-30T05:05:01;11.40;99.90
34492;DHT22;20737;49.908;8.126;2023-04-30T05:07:28;11.40;99.90
34492;DHT22;20737;49.908;8.126;2023-04-30T05:09:56;11.50;99.90
34492;DHT22;20737;49.908;8.126;2023-04-30T05:12:23;11.60;99.90
34492;DHT22;20737;49.908;8.126;2023-04-30T05:14:50;11.60;99.90
34492;DHT22;20737;49.908;8.126;2023-04-30T05:17:17;11.70;99.90
34492;DHT22;20737;49.908;8.126;2023-04-30T05:19:43;11.70;99.90
34492;DHT22;20737;49.908;8.126;2023-04-30T05:22:12;11.80;99.90
34492;DHT22;20737;49.908;8.126;2023-04-30T05:24:38;11.80;99.90
34492;DHT22;20737;49.908;8.126;2023-04-30T05:27:06;11.90;99.90
34492;DHT22;20737;49.908;8.126;2023-04-30T05:29:33;11.90;99.90
34492;DHT22;20737;49.908;8.126;2023-04-30T05:32:00;12.00;99.90
34492;DHT22;20737;49.908;8.126;2023-04-30T05:34:27;12.00;99.90
34492;DHT22;20737;49.908;8.126;2023-04-30T05:36:54;12.10;99.90
34492;DHT22;20737;49.908;8.126;2023-04-30T05:39:20;12.20;99.90
34492;DHT22;20737;49.908;8.126;2023-04-30T05:41:47;12.20;99.90
34492;DHT22;20737;49.908;8.126;2023-04-30T05:44:15;12.30;99.90
34492;DHT22;20737;49.908;8.126;2023-04-30T05:46:42;12.30;99.90
34492;DHT22;20737;49.908;8.126;2023-04-30T05:49:08;12.40;99.90
34492;DHT22;20737;49.908;8.126;2023-04-30T05:51:35;12.50;99.90
34492;DHT22;20737;49.908;8.126;2023-04-30T05:54:02;12.60;99.90
34492;DHT22;20737;49.908;8.126;2023-04-30T05:56:29;12.70;99.90
34492;DHT22;20737;49.908;8.126;2023-04-30T05:58:55;12.90;99.90
34492;DHT22;20737;49.908;8.126;2023-04-30T06:01:24;13.10;99.90
34492;DHT22;20737;49.908;8.126;2023-04-30T06:03:53;13.20;99.90
34492;DHT22;20737;49.908;8.126;2023-04-30T06:06:19;13.40;99.90
34492;DHT22;20737;49.908;8.126;2023-04-30T06:08:46;13.70;99.90
34492;DHT22;20737;49.908;8.126;2023-04-30T06:11:13;13.70;99.90
34492;DHT22;20737;49.908;8.126;2023-04-30T06:13:40;13.60;99.90
34492;DHT22;20737;49.908;8.126;2023-04-30T06:16:07;13.70;99.90
34492;DHT22;20737;49.908;8.126;2023-04-30T06:18:35;13.80;99.90
34492;DHT22;20737;49.908;8.126;2023-04-30T06:21:02;14.00;99.90
34492;DHT22;20737;49.908;8.126;2023-04-30T06:23:28;14.40;99.90
34492;DHT22;20737;49.908;8.126;2023-04-30T06:25:58;14.50;99.90
34492;DHT22;20737;49.908;8.126;2023-04-30T06:28:25;14.80;99.90
34492;DHT22;20737;49.908;8.126;2023-04-30T06:30:52;15.50;99.90
34492;DHT22;20737;49.908;8.126;2023-04-30T06:33:19;16.20;99.90
34492;DHT22;20737;49.908;8.126;2023-04-30T06:35:47;17.20;99.90
34492;DHT22;20737;49.908;8.126;2023-04-30T06:38:15;18.40;99.90
34492;DHT22;20737;49.908;8.126;2023-04-30T06:40:42;19.30;99.90
34492;DHT22;20737;49.908;8.126;2023-04-30T06:43:09;19.90;99.90
34492;DHT22;20737;49.908;8.126;2023-04-30T06:45:36;20.20;98.40
34492;DHT22;20737;49.908;8.126;2023-04-30T06:48:03;20.60;96.70
34492;DHT22;20737;49.908;8.126;2023-04-30T06:50:30;20.80;94.90
34492;DHT22;20737;49.908;8.126;2023-04-30T06:52:58;20.90;93.60
34492;DHT22;20737;49.908;8.126;2023-04-30T06:55:25;21.00;92.90
34492;DHT22;20737;49.908;8.126;2023-04-30T06:57:52;21.00;92.90
34492;DHT22;20737;49.908;8.126;2023-04-30T07:00:22;20.60;92.60
34492;DHT22;20737;49.908;8.126;2023-04-30T07:02:49;21.30;91.50
34492;DHT22;20737;49.908;8.126;2023-04-30T07:05:17;21.40;90.80
34492;DHT22;20737;49.908;8.126;2023-04-30T07:07:44;21.80;90.80
34492;DHT22;20737;49.908;8.126;2023-04-30T07:10:12;21.80;88.60
34492;DHT22;20737;49.908;8.126;2023-04-30T07:12:39;21.50;89.10
34492;DHT22;20737;49.908;8.126;2023-04-30T07:15:07;22.00;88.40
34492;DHT22;20737;49.908;8.126;2023-04-30T07:17:36;22.20;85.60
34492;DHT22;20737;49.908;8.126;2023-04-30T07:20:03;23.10;85.70
34492;DHT22;20737;49.908;8.126;2023-04-30T07:22:31;23.60;78.70
34492;DHT22;20737;49.908;8.126;2023-04-30T07:24:58;22.80;79.60
34492;DHT22;20737;49.908;8.126;2023-04-30T07:27:27;23.00;78.30
34492;DHT22;20737;49.908;8.126;2023-04-30T07:29:54;23.10;77.60
34492;DHT22;20737;49.908;8.126;2023-04-30T07:32:21;23.30;78.50
34492;DHT22;20737;49.908;8.126;2023-04-30T07:34:49;24.10;75.00
34492;DHT22;20737;49.908;8.126;2023-04-30T07:37:16;24.50;72.60
34492;DHT22;20737;49.908;8.126;2023-04-30T07:39:43;24.30;71.00
34492;DHT22;20737;49.908;8.126;2023-04-30T07:42:10;24.00;70.60
34492;DHT22;20737;49.908;8.126;2023-04-30T07:44:38;24.70;69.20
34492;DHT22;20737;49.908;8.126;2023-04-30T07:47:05;24.80;67.80
34492;DHT22;20737;49.908;8.126;2023-04-30T07:49:32;25.20;67.00
34492;DHT22;20737;49.908;8.126;2023-04-30T07:51:59;25.50;64.40
34492;DHT22;20737;49.908;8.126;2023-04-30T07:54:26;25.10;65.80
34492;DHT22;20737;49.908;8.126;2023-04-30T07:56:55;25.30;64.30
34492;DHT22;20737;49.908;8.126;2023-04-30T07:59:32;25.30;62.90
34492;DHT22;20737;49.908;8.126;2023-04-30T08:02:00;25.70;64.00
34492;DHT22;20737;49.908;8.126;2023-04-30T08:04:28;25.30;62.90
34492;DHT22;20737;49.908;8.126;2023-04-30T08:06:58;25.80;62.00
34492;DHT22;20737;49.908;8.126;2023-04-30T08:09:26;25.90;59.20
34492;DHT22;20737;49.908;8.126;2023-04-30T08:11:53;26.40;59.90
34492;DHT22;20737;49.908;8.126;2023-04-30T08:14:20;26.60;58.50
34492;DHT22;20737;49.908;8.126;2023-04-30T08:16:46;26.80;58.90
34492;DHT22;20737;49.908;8.126;2023-04-30T08:19:15;26.40;57.20
34492;DHT22;20737;49.908;8.126;2023-04-30T08:21:41;26.60;56.60
34492;DHT22;20737;49.908;8.126;2023-04-30T08:24:08;26.40;56.40
34492;DHT22;20737;49.908;8.126;2023-04-30T08:26:35;26.50;56.40
34492;DHT22;20737;49.908;8.126;2023-04-30T08:29:01;26.70;55.90
34492;DHT22;20737;49.908;8.126;2023-04-30T08:31:28;27.10;55.40
34492;DHT22;20737;49.908;8.126;2023-04-30T08:33:55;26.90;54.50
34492;DHT22;20737;49.908;8.126;2023-04-30T08:36:23;27.40;54.10
34492;DHT22;20737;49.908;8.126;2023-04-30T08:38:50;27.60;52.80
34492;DHT22;20737;49.908;8.126;2023-04-30T08:41:17;28.30;52.40
34492;DHT22;20737;49.908;8.126;2023-04-30T08:43:47;28.50;52.10
34492;DHT22;20737;49.908;8.126;2023-04-30T08:46:17;29.00;50.40
34492;DHT22;20737;49.908;8.126;2023-04-30T08:48:46;28.80;50.10
34492;DHT22;20737;49.908;8.126;2023-04-30T08:51:13;29.00;49.90
34492;DHT22;20737;49.908;8.126;2023-04-30T08:53:41;29.00;48.70
34492;DHT22;20737;49.908;8.126;2023-04-30T08:56:10;28.60;49.70
34492;DHT22;20737;49.908;8.126;2023-04-30T08:58:37;29.10;48.50
34492;DHT22;20737;49.908;8.126;2023-04-30T09:01:06;29.30;47.70
34492;DHT22;20737;49.908;8.126;2023-04-30T09:03:34;29.20;47.00
34492;DHT22;20737;49.908;8.126;2023-04-30T09:06:01;29.20;48.40
34492;DHT22;20737;49.908;8.126;2023-04-30T09:08:43;28.90;49.00
34492;DHT22;20737;49.908;8.126;2023-04-30T09:11:24;27.70;48.50
34492;DHT22;20737;49.908;8.126;2023-04-30T09:13:56;28.30;48.80
34492;DHT22;20737;49.908;8.126;2023-04-30T09:16:23;28.70;46.70
34492;DHT22;20737;49.908;8.126;2023-04-30T09:18:50;28.80;47.90
34492;DHT22;20737;49.908;8.126;2023-04-30T09:21:30;29.70;46.80
34492;DHT22;20737;49.908;8.126;2023-04-30T09:23:59;30.10;46.40
34492;DHT22;20737;49.908;8.126;2023-04-30T09:26:31;29.80;44.20
34492;DHT22;20737;49.908;8.126;2023-04-30T09:28:58;30.70;43.50
34492;DHT22;20737;49.908;8.126;2023-04-30T09:31:28;30.60;44.40
34492;DHT22;20737;49.908;8.126;2023-04-30T09:33:55;30.30;43.60
34492;DHT22;20737;49.908;8.126;2023-04-30T09:36:22;30.30;44.30
34492;DHT22;20737;49.908;8.126;2023-04-30T09:38:50;30.80;43.30
34492;DHT22;20737;49.908;8.126;2023-04-30T09:41:25;31.50;42.70
34492;DHT22;20737;49.908;8.126;2023-04-30T09:43:52;31.10;41.30
34492;DHT22;20737;49.908;8.126;2023-04-30T09:46:20;30.90;41.60
34492;DHT22;20737;49.908;8.126;2023-04-30T09:48:55;31.10;40.70
34492;DHT22;20737;49.908;8.126;2023-04-30T09:51:22;31.90;39.50
34492;DHT22;20737;49.908;8.126;2023-04-30T09:53:50;31.30;39.90
34492;DHT22;20737;49.908;8.126;2023-04-30T09:56:19;31.90;39.90
34492;DHT22;20737;49.908;8.126;2023-04-30T09:58:49;32.00;39.60
34492;DHT22;20737;49.908;8.126;2023-04-30T10:01:17;32.00;37.70
34492;DHT22;20737;49.908;8.126;2023-04-30T10:03:45;32.50;38.30
34492;DHT22;20737;49.908;8.126;2023-04-30T10:06:13;32.80;38.50
34492;DHT22;20737;49.908;8.126;2023-04-30T10:08:46;32.50;37.40
34492;DHT22;20737;49.908;8.126;2023-04-30T10:11:18;33.00;36.70
34492;DHT22;20737;49.908;8.126;2023-04-30T10:13:52;32.40;37.30
34492;DHT22;20737;49.908;8.126;2023-04-30T10:16:26;32.20;38.00
34492;DHT22;20737;49.908;8.126;2023-04-30T10:18:58;32.20;35.90
34492;DHT22;20737;49.908;8.126;2023-04-30T10:21:27;31.80;37.30
34492;DHT22;20737;49.908;8.126;2023-04-30T10:23:54;31.40;36.20
34492;DHT22;20737;49.908;8.126;2023-04-30T10:26:21;31.70;36.10
34492;DHT22;20737;49.908;8.126;2023-04-30T10:28:49;31.70;36.80
34492;DHT22;20737;49.908;8.126;2023-04-30T10:31:17;31.80;36.70
34492;DHT22;20737;49.908;8.126;2023-04-30T10:33:51;31.60;36.50
34492;DHT22;20737;49.908;8.126;2023-04-30T10:36:25;31.70;37.60
34492;DHT22;20737;49.908;8.126;2023-04-30T10:38:55;32.40;37.90
34492;DHT22;20737;49.908;8.126;2023-04-30T10:41:25;32.60;35.90
34492;DHT22;20737;49.908;8.126;2023-04-30T10:43:55;31.30;35.90
34492;DHT22;20737;49.908;8.126;2023-04-30T10:46:25;30.50;38.10
34492;DHT22;20737;49.908;8.126;2023-04-30T10:48:52;31.60;37.50
34492;DHT22;20737;49.908;8.126;2023-04-30T10:51:20;32.40;36.20
34492;DHT22;20737;49.908;8.126;2023-04-30T10:53:49;32.00;35.50
34492;DHT22;20737;49.908;8.126;2023-04-30T10:56:29;31.50;37.40
34492;DHT22;20737;49.908;8.126;2023-04-30T10:58:58;32.00;36.40
34492;DHT22;20737;49.908;8.126;2023-04-30T11:01:27;31.30;37.10
34492;DHT22;20737;49.908;8.126;2023-04-30T11:04:05;30.50;37.80
34492;DHT22;20737;49.908;8.126;2023-04-30T11:07:06;30.40;38.80
34492;DHT22;20737;49.908;8.126;2023-04-30T11:09:39;31.30;37.40
34492;DHT22;20737;49.908;8.126;2023-04-30T11:12:11;31.50;37.20
34492;DHT22;20737;49.908;8.126;2023-04-30T11:14:42;32.00;36.80
34492;DHT22;20737;49.908;8.126;2023-04-30T11:17:13;32.60;36.20
34492;DHT22;20737;49.908;8.126;2023-04-30T11:19:47;32.20;35.40
34492;DHT22;20737;49.908;8.126;2023-04-30T11:22:16;32.70;36.30
34492;DHT22;20737;49.908;8.126;2023-04-30T11:24:51;31.50;36.20
34492;DHT22;20737;49.908;8.126;2023-04-30T11:27:22;31.50;36.90
34492;DHT22;20737;49.908;8.126;2023-04-30T11:29:49;32.30;38.20
34492;DHT22;20737;49.908;8.126;2023-04-30T11:32:19;32.10;37.10
34492;DHT22;20737;49.908;8.126;2023-04-30T11:34:47;31.30;36.00
34492;DHT22;20737;49.908;8.126;2023-04-30T11:37:18;30.20;35.70
34492;DHT22;20737;49.908;8.126;2023-04-30T11:39:46;30.70;38.00
34492;DHT22;20737;49.908;8.126;2023-04-30T11:42:17;31.30;38.00
34492;DHT22;20737;49.908;8.126;2023-04-30T11:44:44;32.00;35.80
34492;DHT22;20737;49.908;8.126;2023-04-30T11:47:12;31.20;36.40
34492;DHT22;20737;49.908;8.126;2023-04-30T11:49:42;31.30;38.00
34492;DHT22;20737;49.908;8.126;2023-04-30T11:52:12;30.80;37.50
34492;DHT22;20737;49.908;8.126;2023-04-30T11:54:40;30.90;36.60
34492;DHT22;20737;49.908;8.126;2023-04-30T11:57:07;30.10;37.90
34492;DHT22;20737;49.908;8.126;2023-04-30T11:59:39;28.00;41.20
34492;DHT22;20737;49.908;8.126;2023-04-30T12:02:08;27.70;43.30
34492;DHT22;20737;49.908;8.126;2023-04-30T12:04:35;29.00;40.80
34492;DHT22;20737;49.908;8.126;2023-04-30T12:07:06;30.00;39.90
34492;DHT22;20737;49.908;8.126;2023-04-30T12:09:52;30.30;39.00
34492;DHT22;20737;49.908;8.126;2023-04-30T12:12:26;29.90;39.20
34492;DHT22;20737;49.908;8.126;2023-04-30T12:14:52;29.50;40.80
34492;DHT22;20737;49.908;8.126;2023-04-30T12:17:30;30.00;39.70
34492;DHT22;20737;49.908;8.126;2023-04-30T12:19:57;28.60;40.70
34492;DHT22;20737;49.908;8.126;2023-04-30T12:22:25;26.90;43.80
34492;DHT22;20737;49.908;8.126;2023-04-30T12:24:54;26.90;45.50
34492;DHT22;20737;49.908;8.126;2023-04-30T12:27:21;27.20;43.70
34492;DHT22;20737;49.908;8.126;2023-04-30T12:29:48;28.40;42.40
34492;DHT22;20737;49.908;8.126;2023-04-30T12:32:16;29.20;41.90
34492;DHT22;20737;49.908;8.126;2023-04-30T12:34:43;28.50;42.50
34492;DHT22;20737;49.908;8.126;2023-04-30T12:37:14;28.30;42.90
34492;DHT22;20737;49.908;8.126;2023-04-30T12:39:42;28.60;42.50
34492;DHT22;20737;49.908;8.126;2023-04-30T12:42:09;28.90;41.70
34492;DHT22;20737;49.908;8.126;2023-04-30T12:44:42;28.60;40.80
34492;DHT22;20737;49.908;8.126;2023-04-30T12:47:09;28.60;41.70
34492;DHT22;20737;49.908;8.126;2023-04-30T12:49:36;29.10;43.00
34492;DHT22;20737;49.908;8.126;2023-04-30T12:52:07;29.90;40.10
34492;DHT22;20737;49.908;8.126;2023-04-30T12:54:35;29.80;42.00
34492;DHT22;20737;49.908;8.126;2023-04-30T12:57:04;28.70;41.70
34492;DHT22;20737;49.908;8.126;2023-04-30T12:59:33;27.50;43.10
34492;DHT22;20737;49.908;8.126;2023-04-30T13:02:07;26.10;45.50
34492;DHT22;20737;49.908;8.126;2023-04-30T13:04:34;25.20;47.20
34492;DHT22;20737;49.908;8.126;2023-04-30T13:07:01;25.40;48.40
34492;DHT22;20737;49.908;8.126;2023-04-30T13:09:29;25.90;46.90
34492;DHT22;20737;49.908;8.126;2023-04-30T13:11:55;27.00;44.50
34492;DHT22;20737;49.908;8.126;2023-04-30T13:14:23;27.40;43.00
34492;DHT22;20737;49.908;8.126;2023-04-30T13:16:50;27.70;44.20
34492;DHT22;20737;49.908;8.126;2023-04-30T13:19:18;27.70;43.80
34492;DHT22;20737;49.908;8.126;2023-04-30T13:21:45;26.70;45.40
34492;DHT22;20737;49.908;8.126;2023-04-30T13:24:12;26.50;45.30
34492;DHT22;20737;49.908;8.126;2023-04-30T13:26:39;26.20;45.30
34492;DHT22;20737;49.908;8.126;2023-04-30T13:29:05;26.20;45.40
34492;DHT22;20737;49.908;8.126;2023-04-30T13:31:34;25.80;46.00
34492;DHT22;20737;49.908;8.126;2023-04-30T13:34:01;25.50;46.10
34492;DHT22;20737;49.908;8.126;2023-04-30T13:36:27;25.60;46.80
34492;DHT22;20737;49.908;8.126;2023-04-30T13:38:54;25.30;47.40
34492;DHT22;20737;49.908;8.126;2023-04-30T13:41:21;25.50;46.10
34492;DHT22;20737;49.908;8.126;2023-04-30T13:43:48;25.80;46.10
34492;DHT22;20737;49.908;8.126;2023-04-30T13:46:15;26.30;46.20
34492;DHT22;20737;49.908;8.126;2023-04-30T13:48:45;27.30;44.20
34492;DHT22;20737;49.908;8.126;2023-04-30T13:51:12;26.90;44.80
34492;DHT22;20737;49.908;8.126;2023-04-30T13:53:39;26.00;46.30
34492;DHT22;20737;49.908;8.126;2023-04-30T13:56:06;25.10;47.90
34492;DHT22;20737;49.908;8.126;2023-04-30T13:58:33;24.50;49.10
34492;DHT22;20737;49.908;8.126;2023-04-30T14:00:59;23.50;49.70
34492;DHT22;20737;49.908;8.126;2023-04-30T14:03:27;23.10;50.60
34492;DHT22;20737;49.908;8.126;2023-04-30T14:05:55;23.20;50.20
34492;DHT22;20737;49.908;8.126;2023-04-30T14:08:24;23.50;50.00
34492;DHT22;20737;49.908;8.126;2023-04-30T14:10:50;23.80;49.40
34492;DHT22;20737;49.908;8.126;2023-04-30T14:13:20;23.90;50.60
34492;DHT22;20737;49.908;8.126;2023-04-30T14:15:47;24.40;48.50
34492;DHT22;20737;49.908;8.126;2023-04-30T14:18:14;24.50;48.10
34492;DHT22;20737;49.908;8.126;2023-04-30T14:20:40;24.90;47.20
34492;DHT22;20737;49.908;8.126;2023-04-30T14:23:08;24.90;47.00
34492;DHT22;20737;49.908;8.126;2023-04-30T14:25:37;24.70;48.10
34492;DHT22;20737;49.908;8.126;2023-04-30T14:28:04;24.40;47.00
34492;DHT22;20737;49.908;8.126;2023-04-30T14:30:31;24.40;48.40
34492;DHT22;20737;49.908;8.126;2023-04-30T14:32:57;24.00;48.20
34492;DHT22;20737;49.908;8.126;2023-04-30T14:35:24;24.00;49.70
34492;DHT22;20737;49.908;8.126;2023-04-30T14:37:51;24.10;49.10
34492;DHT22;20737;49.908;8.126;2023-04-30T14:40:19;24.20;48.30
34492;DHT22;20737;49.908;8.126;2023-04-30T14:42:45;24.10;49.20
34492;DHT22;20737;49.908;8.126;2023-04-30T14:45:14;24.00;49.80
34492;DHT22;20737;49.908;8.126;2023-04-30T14:47:41;24.00;49.10
34492;DHT22;20737;49.908;8.126;2023-04-30T14:50:09;24.10;49.60
34492;DHT22;20737;49.908;8.126;2023-04-30T14:52:35;24.10;49.50
34492;DHT22;20737;49.908;8.126;2023-04-30T14:55:05;23.90;48.30
34492;DHT22;20737;49.908;8.126;2023-04-30T14:57:35;23.80;47.10
34492;DHT22;20737;49.908;8.126;2023-04-30T15:00:02;23.90;50.70
34492;DHT22;20737;49.908;8.126;2023-04-30T15:02:31;24.30;48.90
34492;DHT22;20737;49.908;8.126;2023-04-30T15:04:58;24.40;48.40
34492;DHT22;20737;49.908;8.126;2023-04-30T15:07:24;24.00;49.10
34492;DHT22;20737;49.908;8.126;2023-04-30T15:09:51;23.30;49.70
34492;DHT22;20737;49.908;8.126;2023-04-30T15:12:18;22.70;51.30
34492;DHT22;20737;49.908;8.126;2023-04-30T15:14:49;22.20;52.40
34492;DHT22;20737;49.908;8.126;2023-04-30T15:17:18;21.90;53.10
34492;DHT22;20737;49.908;8.126;2023-04-30T15:19:44;21.60;54.30
34492;DHT22;20737;49.908;8.126;2023-04-30T15:22:11;21.50;56.00
34492;DHT22;20737;49.908;8.126;2023-04-30T15:24:38;21.60;55.20
34492;DHT22;20737;49.908;8.126;2023-04-30T15:27:06;21.60;54.10
34492;DHT22;20737;49.908;8.126;2023-04-30T15:29:33;21.80;54.80
34492;DHT22;20737;49.908;8.126;2023-04-30T15:32:01;22.20;54.50
34492;DHT22;20737;49.908;8.126;2023-04-30T15:34:28;22.10;54.60
34492;DHT22;20737;49.908;8.126;2023-04-30T15:36:57;22.30;54.90
34492;DHT22;20737;49.908;8.126;2023-04-30T15:39:24;22.30;53.40